createdAt,value
2022-12-31T00:00:39.038Z,90.30
2022-12-31T00:03:26.989Z,92.70
2022-12-31T00:05:55.393Z,92.47
2022-12-31T00:08:24.447Z,99.32
2022-12-31T00:10:52.669Z,85.40
2022-12-31T00:13:20.464Z,88.70
2022-12-31T00:15:48.586Z,94.47
2022-12-31T00:18:16.386Z,87.82
2022-12-31T00:20:44.567Z,98.25
2022-12-31T00:23:12.480Z,90.00
2022-12-31T00:25:40.720Z,97.18
2022-12-31T00:28:08.619Z,99.55
2022-12-31T00:30:36.874Z,87.32
2022-12-31T00:33:04.560Z,94.78
2022-12-31T00:35:35.858Z,92.03
2022-12-31T00:38:03.676Z,85.40
2022-12-31T00:40:31.795Z,80.90
2022-12-31T00:42:59.839Z,87.10
2022-12-31T00:45:27.882Z,83.72
2022-12-31T00:47:55.666Z,82.30
2022-12-31T00:50:23.743Z,77.70
2022-12-31T00:52:51.489Z,77.90
2022-12-31T00:55:20.093Z,77.55
2022-12-31T00:57:47.903Z,88.88
2022-12-31T01:00:16.658Z,71.50
2022-12-31T01:02:44.688Z,62.33
2022-12-31T01:05:12.994Z,64.30
2022-12-31T01:07:40.933Z,68.97
2022-12-31T01:10:09.402Z,58.35
2022-12-31T01:12:37.528Z,59.77
2022-12-31T01:15:06.151Z,55.83
2022-12-31T01:17:35.056Z,53.88
2022-12-31T01:20:09.031Z,57.28
2022-12-31T01:22:36.876Z,63.50
2022-12-31T01:25:05.263Z,59.10
2022-12-31T01:27:33.221Z,57.55
2022-12-31T01:30:01.206Z,51.35
2022-12-31T01:32:29.228Z,47.55
2022-12-31T01:34:58.350Z,43.28
2022-12-31T01:37:26.188Z,42.23
2022-12-31T01:39:54.385Z,44.92
2022-12-31T01:42:22.211Z,48.33
2022-12-31T01:44:53.712Z,48.15
2022-12-31T01:47:40.394Z,48.03
2022-12-31T01:51:00.301Z,56.67
2022-12-31T01:53:29.218Z,53.05
2022-12-31T01:55:59.728Z,55.42
2022-12-31T01:58:37.147Z,68.43
2022-12-31T02:01:06.971Z,74.05
2022-12-31T02:03:35.601Z,74.13
2022-12-31T02:06:17.022Z,60.58
2022-12-31T02:08:45.637Z,58.35
2022-12-31T02:11:29.583Z,52.90
2022-12-31T02:14:03.117Z,50.78
2022-12-31T02:21:19.967Z,55.30
2022-12-31T02:28:37.043Z,42.33
2022-12-31T02:36:00.446Z,41.33
2022-12-31T02:38:32.823Z,43.92
2022-12-31T02:41:01.428Z,47.03
2022-12-31T02:43:29.548Z,48.78
2022-12-31T02:46:00.207Z,56.53
2022-12-31T02:48:41.571Z,60.43
2022-12-31T02:51:18.183Z,81.35
2022-12-31T02:59:02.328Z,76.20
2022-12-31T03:01:59.268Z,78.18
2022-12-31T03:04:34.605Z,53.87
2022-12-31T03:07:05.583Z,50.13
2022-12-31T03:09:34.603Z,54.05
2022-12-31T03:16:04.252Z,59.58
2022-12-31T03:19:47.552Z,62.77
2022-12-31T03:22:30.914Z,69.45
2022-12-31T03:28:16.219Z,54.42
2022-12-31T03:30:49.059Z,61.38
2022-12-31T03:33:17.490Z,48.97
2022-12-31T03:35:47.126Z,53.30
2022-12-31T03:38:16.140Z,59.53
2022-12-31T03:40:48.489Z,41.95
2022-12-31T03:43:16.682Z,45.55
2022-12-31T03:45:44.988Z,38.43
2022-12-31T03:48:13.770Z,33.45
2022-12-31T03:50:41.896Z,39.85
2022-12-31T03:53:10.127Z,39.25
2022-12-31T03:55:38.556Z,67.82
2022-12-31T03:58:06.825Z,65.33
2022-12-31T04:00:35.317Z,70.25
2022-12-31T04:03:03.185Z,65.90
2022-12-31T04:05:32.763Z,65.38
2022-12-31T04:08:00.538Z,68.22
2022-12-31T04:10:28.623Z,69.93
2022-12-31T04:12:56.375Z,73.82
2022-12-31T04:15:24.404Z,71.13
2022-12-31T04:17:52.017Z,75.60
2022-12-31T04:20:22.121Z,72.47
2022-12-31T04:22:49.979Z,70.63
2022-12-31T04:25:18.098Z,69.47
2022-12-31T04:27:47.344Z,69.78
2022-12-31T04:30:15.776Z,76.53
2022-12-31T04:32:43.680Z,74.57
2022-12-31T04:35:14.499Z,72.87
2022-12-31T04:37:42.385Z,73.43
2022-12-31T04:40:10.865Z,72.38
2022-12-31T04:42:39.056Z,72.95
2022-12-31T04:45:08.106Z,69.28
2022-12-31T04:47:36.079Z,70.43
2022-12-31T04:50:05.849Z,70.80
2022-12-31T04:52:37.162Z,80.10
2022-12-31T04:55:11.289Z,67.07
2022-12-31T04:57:39.468Z,52.25
2022-12-31T05:00:08.771Z,53.73
2022-12-31T05:02:36.703Z,55.92
2022-12-31T05:05:06.225Z,52.45
2022-12-31T05:07:33.851Z,49.47
2022-12-31T05:10:02.047Z,51.65
2022-12-31T05:12:29.842Z,50.10
2022-12-31T05:14:57.955Z,49.30
2022-12-31T05:17:25.668Z,49.80
2022-12-31T05:19:53.801Z,44.40
2022-12-31T05:22:30.924Z,44.60
2022-12-31T05:24:59.701Z,47.83
2022-12-31T05:27:31.517Z,48.50
2022-12-31T05:30:00.346Z,48.42
2022-12-31T05:32:28.522Z,53.75
2022-12-31T05:34:57.907Z,59.88
2022-12-31T05:37:26.509Z,60.23
2022-12-31T05:39:54.872Z,79.47
2022-12-31T05:42:23.268Z,69.78
2022-12-31T05:44:51.415Z,64.13
2022-12-31T05:47:19.809Z,53.85
2022-12-31T05:49:48.093Z,48.20
2022-12-31T05:52:16.034Z,47.42
2022-12-31T05:54:44.388Z,47.85
2022-12-31T05:57:12.248Z,48.25
2022-12-31T05:59:40.809Z,47.58
2022-12-31T06:02:08.670Z,47.23
2022-12-31T06:04:36.859Z,46.33
2022-12-31T06:07:04.625Z,49.60
2022-12-31T06:09:33.067Z,47.22
2022-12-31T06:12:00.780Z,46.17
2022-12-31T06:14:28.960Z,50.27
2022-12-31T06:16:56.790Z,49.85
2022-12-31T06:19:25.183Z,53.58
2022-12-31T06:21:52.860Z,64.10
2022-12-31T06:24:21.427Z,108.80
2022-12-31T06:26:49.411Z,151.43
2022-12-31T06:29:17.760Z,65.15
2022-12-31T06:31:45.563Z,51.70
2022-12-31T06:34:13.887Z,55.95
2022-12-31T06:36:41.845Z,61.20
2022-12-31T06:39:10.017Z,77.13
2022-12-31T06:41:37.805Z,70.93
2022-12-31T06:44:06.301Z,62.35
2022-12-31T06:46:34.181Z,105.85
2022-12-31T06:49:02.325Z,67.90
2022-12-31T06:51:30.155Z,57.63
2022-12-31T06:53:58.507Z,57.25
2022-12-31T06:56:34.873Z,188.13
2022-12-31T06:59:39.862Z,230.05
2022-12-31T07:02:27.603Z,125.47
2022-12-31T07:05:33.662Z,74.77
2022-12-31T07:08:39.740Z,87.00
2022-12-31T07:11:11.897Z,72.03
2022-12-31T07:14:23.004Z,136.07
2022-12-31T07:17:07.593Z,130.00
2022-12-31T07:19:41.397Z,138.40
2022-12-31T07:22:16.958Z,79.50
2022-12-31T07:24:45.373Z,65.82
2022-12-31T07:27:25.457Z,85.90
2022-12-31T07:30:18.689Z,73.32
2022-12-31T07:33:20.426Z,50.77
2022-12-31T07:36:08.045Z,57.55
2022-12-31T07:38:53.821Z,61.63
2022-12-31T07:41:55.150Z,61.78
2022-12-31T07:44:50.741Z,50.08
2022-12-31T07:47:29.840Z,60.70
2022-12-31T07:49:59.030Z,52.72
2022-12-31T07:52:27.375Z,52.38
2022-12-31T07:54:55.523Z,46.08
2022-12-31T07:57:32.639Z,46.75
2022-12-31T08:00:12.474Z,55.40
2022-12-31T08:03:22.064Z,59.28
2022-12-31T08:06:28.903Z,53.00
2022-12-31T08:09:18.395Z,66.07
2022-12-31T08:11:58.883Z,70.10
2022-12-31T08:14:28.590Z,73.93
2022-12-31T08:16:58.715Z,74.68
2022-12-31T08:19:32.233Z,69.85
2022-12-31T08:22:27.259Z,68.07
2022-12-31T08:25:18.882Z,99.68
2022-12-31T08:28:14.803Z,68.97
2022-12-31T08:31:17.476Z,105.40
2022-12-31T08:34:05.584Z,50.95
2022-12-31T08:37:24.036Z,87.50
2022-12-31T08:39:58.366Z,101.20
2022-12-31T08:42:39.431Z,54.87
2022-12-31T08:45:24.886Z,54.20
2022-12-31T08:48:15.661Z,78.72
2022-12-31T08:50:44.486Z,72.50
2022-12-31T08:53:12.688Z,62.47
2022-12-31T08:55:43.471Z,60.70
2022-12-31T08:58:44.177Z,83.50
2022-12-31T09:01:15.351Z,78.20
2022-12-31T09:04:06.341Z,59.05
2022-12-31T09:06:52.383Z,57.63
2022-12-31T09:09:41.360Z,71.63
2022-12-31T09:12:15.995Z,43.50
2022-12-31T09:15:19.192Z,47.38
2022-12-31T09:17:50.996Z,41.15
2022-12-31T09:20:32.508Z,42.17
2022-12-31T09:23:11.317Z,50.23
2022-12-31T09:25:47.560Z,43.40
2022-12-31T09:28:22.743Z,46.88
2022-12-31T09:31:09.116Z,43.38
2022-12-31T09:34:12.139Z,51.30
2022-12-31T09:36:47.173Z,48.23
2022-12-31T09:39:44.531Z,42.88
2022-12-31T09:42:52.865Z,48.75
2022-12-31T09:45:42.373Z,48.00
2022-12-31T09:48:38.282Z,47.25
2022-12-31T09:51:29.996Z,52.13
2022-12-31T09:54:22.413Z,44.38
2022-12-31T09:57:22.625Z,44.40
2022-12-31T10:00:00.600Z,43.10
2022-12-31T10:02:44.239Z,43.85
2022-12-31T10:05:52.379Z,44.47
2022-12-31T10:08:42.084Z,47.70
2022-12-31T10:11:21.682Z,41.30
2022-12-31T10:13:49.824Z,37.08
2022-12-31T10:16:25.229Z,36.83
2022-12-31T10:19:25.163Z,35.63
2022-12-31T10:22:15.292Z,36.78
2022-12-31T10:24:54.223Z,35.88
2022-12-31T10:27:32.391Z,32.55
2022-12-31T10:30:18.100Z,34.00
2022-12-31T10:33:10.387Z,32.27
2022-12-31T10:36:00.289Z,52.60
2022-12-31T10:38:36.573Z,29.73
2022-12-31T10:41:35.753Z,33.95
2022-12-31T10:44:37.835Z,32.85
2022-12-31T10:47:06.307Z,26.83
2022-12-31T10:49:52.594Z,25.95
2022-12-31T10:52:38.192Z,32.38
2022-12-31T10:55:46.482Z,27.25
2022-12-31T10:59:01.339Z,30.45
2022-12-31T11:01:44.803Z,28.37
2022-12-31T11:04:18.796Z,31.75
2022-12-31T11:11:11.663Z,31.92
2022-12-31T11:14:13.007Z,32.05
2022-12-31T11:17:06.914Z,53.13
2022-12-31T11:19:40.340Z,60.63
2022-12-31T11:22:50.662Z,77.90
2022-12-31T11:25:33.158Z,59.53
2022-12-31T11:28:26.040Z,47.92
2022-12-31T11:31:07.696Z,107.43
2022-12-31T11:33:58.241Z,57.60
2022-12-31T11:36:42.892Z,43.22
2022-12-31T11:39:52.539Z,48.60
2022-12-31T11:42:45.097Z,102.22
2022-12-31T11:45:28.415Z,35.00
2022-12-31T11:48:40.651Z,35.47
2022-12-31T11:51:33.080Z,39.58
2022-12-31T11:54:29.042Z,55.05
2022-12-31T11:57:10.805Z,81.03
2022-12-31T11:59:39.071Z,53.10
2022-12-31T12:02:16.342Z,151.95
2022-12-31T12:04:48.252Z,96.32
2022-12-31T12:07:18.093Z,90.68
2022-12-31T12:09:46.552Z,77.68
2022-12-31T12:12:16.109Z,72.57
2022-12-31T12:14:47.501Z,60.83
2022-12-31T12:17:27.328Z,53.90
2022-12-31T12:19:57.466Z,191.63
2022-12-31T12:22:27.906Z,68.90
2022-12-31T12:25:05.789Z,57.37
2022-12-31T12:27:36.463Z,45.03
2022-12-31T12:30:23.094Z,36.30
2022-12-31T12:33:05.159Z,34.65
2022-12-31T12:35:35.453Z,29.17
2022-12-31T12:38:08.291Z,25.70
2022-12-31T12:40:36.179Z,23.90
2022-12-31T12:43:04.351Z,33.47
2022-12-31T12:45:51.709Z,19.38
2022-12-31T12:48:26.114Z,83.47
2022-12-31T12:50:54.283Z,56.40
2022-12-31T12:53:45.312Z,47.25
2022-12-31T12:56:27.893Z,69.53
2022-12-31T12:59:17.842Z,48.70
2022-12-31T13:02:07.822Z,43.42
2022-12-31T13:04:51.535Z,45.17
2022-12-31T13:07:35.807Z,46.15
2022-12-31T13:10:18.573Z,56.08
2022-12-31T13:13:26.003Z,31.45
2022-12-31T13:16:24.336Z,14.75
2022-12-31T13:19:12.627Z,16.77
2022-12-31T13:21:59.790Z,44.95
2022-12-31T13:24:49.007Z,28.75
2022-12-31T13:27:29.326Z,21.90
2022-12-31T13:30:02.500Z,18.80
2022-12-31T13:32:46.538Z,15.83
2022-12-31T13:35:24.612Z,15.73
2022-12-31T13:38:22.701Z,26.27
2022-12-31T13:40:59.924Z,22.42
2022-12-31T13:44:13.282Z,45.38
2022-12-31T13:46:55.073Z,36.47
2022-12-31T13:49:32.066Z,21.40
2022-12-31T13:52:04.471Z,17.77
2022-12-31T13:54:54.802Z,21.58
2022-12-31T13:57:36.285Z,21.27
2022-12-31T14:00:26.032Z,18.30
2022-12-31T14:03:27.720Z,14.32
2022-12-31T14:06:22.943Z,73.80
2022-12-31T14:08:54.449Z,38.33
2022-12-31T14:12:01.450Z,45.13
2022-12-31T14:14:47.374Z,22.00
2022-12-31T14:17:45.830Z,27.40
2022-12-31T14:20:40.043Z,28.95
2022-12-31T14:23:39.113Z,28.60
2022-12-31T14:26:28.022Z,26.85
2022-12-31T14:29:23.244Z,39.33
2022-12-31T14:31:53.904Z,28.45
2022-12-31T14:34:30.863Z,29.00
2022-12-31T14:37:13.427Z,27.15
2022-12-31T14:39:44.571Z,26.65
2022-12-31T14:42:36.438Z,23.87
2022-12-31T14:45:23.680Z,13.65
2022-12-31T14:48:01.343Z,14.13
2022-12-31T14:50:48.782Z,25.33
2022-12-31T14:53:26.362Z,69.85
2022-12-31T14:56:03.980Z,24.67
2022-12-31T14:58:34.203Z,46.22
2022-12-31T15:01:19.319Z,10.23
2022-12-31T15:03:47.581Z,47.70
2022-12-31T15:06:51.642Z,36.03
2022-12-31T15:10:10.897Z,26.37
2022-12-31T15:13:03.140Z,12.40
2022-12-31T15:16:02.220Z,15.48
2022-12-31T15:18:39.658Z,18.48
2022-12-31T15:21:29.472Z,11.85
2022-12-31T15:23:58.145Z,14.63
2022-12-31T15:26:31.331Z,10.65
2022-12-31T15:29:30.635Z,10.43
2022-12-31T15:32:02.223Z,10.15
2022-12-31T15:34:35.789Z,13.13
2022-12-31T15:37:07.452Z,10.90
2022-12-31T15:39:35.706Z,10.70
2022-12-31T15:42:36.688Z,13.68
2022-12-31T15:45:00.680Z,12.95
2022-12-31T15:47:32.548Z,16.25
2022-12-31T15:50:08.354Z,15.57
2022-12-31T15:52:44.254Z,16.33
2022-12-31T15:55:29.508Z,15.23
2022-12-31T15:58:05.462Z,16.70
2022-12-31T16:00:52.422Z,15.95
2022-12-31T16:03:24.594Z,15.27
2022-12-31T16:06:01.247Z,15.02
2022-12-31T16:08:35.195Z,15.73
2022-12-31T16:11:10.445Z,14.85
2022-12-31T16:13:43.403Z,15.10
2022-12-31T16:16:30.797Z,15.53
2022-12-31T16:19:00.035Z,16.05
2022-12-31T16:21:34.477Z,15.98
2022-12-31T16:24:05.392Z,16.40
2022-12-31T16:26:47.353Z,12.30
2022-12-31T16:29:19.126Z,13.77
2022-12-31T16:31:49.040Z,18.10
2022-12-31T16:34:22.589Z,15.05
2022-12-31T16:37:03.273Z,14.95
2022-12-31T16:39:38.759Z,18.20
2022-12-31T16:42:21.786Z,23.03
2022-12-31T16:44:51.713Z,17.52
2022-12-31T16:47:36.305Z,38.90
2022-12-31T16:50:08.230Z,33.38
2022-12-31T16:52:40.118Z,28.30
2022-12-31T16:55:15.553Z,20.83
2022-12-31T16:57:49.840Z,20.88
2022-12-31T17:00:19.534Z,22.95
2022-12-31T17:03:20.032Z,24.52
2022-12-31T17:06:15.414Z,35.03
2022-12-31T17:08:56.463Z,29.43
2022-12-31T17:11:56.907Z,25.42
2022-12-31T17:14:27.866Z,19.77
2022-12-31T17:17:08.611Z,19.88
2022-12-31T17:19:45.335Z,18.20
2022-12-31T17:22:34.442Z,19.30
2022-12-31T17:25:25.236Z,18.50
2022-12-31T17:28:04.007Z,19.30
2022-12-31T17:30:40.959Z,18.77
2022-12-31T17:33:11.963Z,15.20
2022-12-31T17:35:42.698Z,18.77
2022-12-31T17:38:22.735Z,18.27
2022-12-31T17:41:15.269Z,14.10
2022-12-31T17:43:43.381Z,16.35
2022-12-31T17:46:21.296Z,15.27
2022-12-31T17:48:56.872Z,16.43
2022-12-31T17:51:25.416Z,17.30
2022-12-31T17:53:53.087Z,10.38
2022-12-31T17:56:22.089Z,13.85
2022-12-31T17:58:52.882Z,12.20
2022-12-31T18:01:23.940Z,12.10
2022-12-31T18:03:51.964Z,11.85
2022-12-31T18:06:20.220Z,13.35
2022-12-31T18:08:48.473Z,13.80
2022-12-31T18:11:21.968Z,16.13
2022-12-31T18:13:50.222Z,14.97
2022-12-31T18:16:18.287Z,14.05
2022-12-31T18:18:46.311Z,13.43
2022-12-31T18:21:32.870Z,11.38
2022-12-31T18:26:34.872Z,13.67
2022-12-31T18:29:16.753Z,12.02
2022-12-31T18:31:47.214Z,12.75
2022-12-31T18:34:16.984Z,10.23
2022-12-31T18:36:45.218Z,10.38
2022-12-31T18:39:12.956Z,13.27
2022-12-31T18:41:50.090Z,10.70
2022-12-31T18:44:18.408Z,11.50
2022-12-31T18:46:46.738Z,10.00
2022-12-31T18:49:14.722Z,11.75
2022-12-31T18:51:42.798Z,11.97
2022-12-31T18:54:12.618Z,14.68
2022-12-31T18:56:47.064Z,15.65
2022-12-31T18:59:16.359Z,13.68
2022-12-31T19:01:44.707Z,12.77
2022-12-31T19:04:28.137Z,16.20
2022-12-31T19:06:57.383Z,13.18
2022-12-31T19:12:14.157Z,17.55
2022-12-31T19:14:42.040Z,14.07
2022-12-31T19:19:36.698Z,14.13
2022-12-31T19:22:04.823Z,18.83
2022-12-31T19:24:32.493Z,18.52
2022-12-31T19:27:01.790Z,17.88
2022-12-31T19:29:30.663Z,23.00
2022-12-31T19:32:01.500Z,23.25
2022-12-31T19:34:29.503Z,60.25
2022-12-31T19:36:57.871Z,32.40
2022-12-31T19:39:25.667Z,46.20
2022-12-31T19:41:58.877Z,25.17
2022-12-31T19:44:28.188Z,34.97
2022-12-31T19:46:56.313Z,20.65
2022-12-31T19:49:24.189Z,18.42
2022-12-31T19:51:52.345Z,18.55
2022-12-31T19:54:20.235Z,15.10
2022-12-31T19:56:48.326Z,15.77
2022-12-31T19:59:16.931Z,14.43
2022-12-31T20:01:46.595Z,14.38
2022-12-31T20:04:14.574Z,13.75
2022-12-31T20:06:42.722Z,12.93
2022-12-31T20:09:12.595Z,13.80
2022-12-31T20:11:40.779Z,16.40
2022-12-31T20:14:08.713Z,14.48
2022-12-31T20:16:36.837Z,13.82
2022-12-31T20:19:06.370Z,15.87
2022-12-31T20:21:34.808Z,11.23
2022-12-31T20:24:02.760Z,20.05
2022-12-31T20:26:30.984Z,14.13
2022-12-31T20:28:58.776Z,14.18
2022-12-31T20:31:27.160Z,15.03
2022-12-31T20:33:55.893Z,16.35
2022-12-31T20:36:24.803Z,18.20
2022-12-31T20:38:53.316Z,14.65
2022-12-31T20:41:23.231Z,16.40
2022-12-31T20:43:51.907Z,17.33
2022-12-31T20:46:25.751Z,16.60
2022-12-31T20:48:56.393Z,21.00
2022-12-31T20:51:25.752Z,18.15
2022-12-31T20:54:00.582Z,16.13
2022-12-31T20:56:31.876Z,13.33
2022-12-31T20:59:00.540Z,14.68
2022-12-31T21:01:48.224Z,20.00
2022-12-31T21:04:17.876Z,23.52
2022-12-31T21:06:46.237Z,15.07
2022-12-31T21:09:14.704Z,15.17
2022-12-31T21:12:01.348Z,12.63
2022-12-31T21:14:29.371Z,14.68
2022-12-31T21:16:57.455Z,12.73
2022-12-31T21:19:25.603Z,13.27
2022-12-31T21:21:54.141Z,11.67
2022-12-31T21:24:24.041Z,13.00
2022-12-31T21:26:56.140Z,10.68
2022-12-31T21:29:24.136Z,10.45
2022-12-31T21:31:52.396Z,16.30
2022-12-31T21:34:20.391Z,10.70
2022-12-31T21:36:51.684Z,12.38
2022-12-31T21:39:21.193Z,13.65
2022-12-31T21:41:52.910Z,12.48
2022-12-31T21:44:25.834Z,15.05
2022-12-31T21:47:37.479Z,19.17
2022-12-31T21:50:07.861Z,15.88
2022-12-31T21:52:39.119Z,11.93
2022-12-31T21:55:27.239Z,11.23
2022-12-31T22:01:03.053Z,21.27
2022-12-31T22:03:33.039Z,12.85
2022-12-31T22:06:15.468Z,19.17
2022-12-31T22:08:48.304Z,19.48
2022-12-31T22:11:19.031Z,13.98
2022-12-31T22:13:50.332Z,16.37
2022-12-31T22:16:20.950Z,15.07
2022-12-31T22:18:51.134Z,10.68
2022-12-31T22:21:24.674Z,15.48
2022-12-31T22:23:56.366Z,13.13
2022-12-31T22:26:29.083Z,15.20
2022-12-31T22:28:59.986Z,39.83
2022-12-31T22:31:30.641Z,321.65
2022-12-31T22:34:00.448Z,137.32
2022-12-31T22:36:28.467Z,40.10
2022-12-31T22:38:58.699Z,24.00
2022-12-31T22:41:27.947Z,27.10
2022-12-31T22:44:03.526Z,21.23
2022-12-31T22:46:33.812Z,20.92
2022-12-31T22:49:04.878Z,24.58
2022-12-31T22:51:57.298Z,36.23
2022-12-31T22:54:22.246Z,18.80
2022-12-31T22:56:50.474Z,19.67
2022-12-31T22:59:18.833Z,19.75
2022-12-31T23:01:46.918Z,18.27
2022-12-31T23:04:15.482Z,28.37
2022-12-31T23:06:46.674Z,20.05
2022-12-31T23:09:35.911Z,24.80
2022-12-31T23:12:06.432Z,31.85
2022-12-31T23:14:54.359Z,20.50
2022-12-31T23:17:46.257Z,21.97
2022-12-31T23:20:38.461Z,26.92
2022-12-31T23:23:10.599Z,27.33
2022-12-31T23:25:51.425Z,22.55
2022-12-31T23:28:25.078Z,28.30
2022-12-31T23:30:54.096Z,20.33
2022-12-31T23:33:24.584Z,15.82
2022-12-31T23:36:04.518Z,13.73
2022-12-31T23:38:32.487Z,11.88
2022-12-31T23:41:00.677Z,11.70
2022-12-31T23:43:28.616Z,14.23
2022-12-31T23:45:56.828Z,11.75
2022-12-31T23:48:24.685Z,12.55
2022-12-31T23:50:54.106Z,13.80
2022-12-31T23:53:25.737Z,9.93
2022-12-31T23:55:54.273Z,13.03
2022-12-31T23:58:22.645Z,11.25
